Portland — WDG2201 — position and weather

sailwx.info

Track history (hours):
 
Tides and Currents Weather Stations Pressure Air Temp Water Temp Dewpoint Dewpoint Depression Visibility Wind Speed Wind Dir Waves Ship Positions

Portland

Owner: Shaver Transportation Company, Portland, OR. More information available from US FCC via Universal Licensing System and Coast Guard Vessel Documentation Center.

Last reported at 2018-Jan-21 09:45 UTC. Time now 2018-Jan-21 22:33 UTC.
Position N 45°39' W 122°45'.

Length 27 m; draft 4 m.

Type: Towing. MMSI: 367315814.

Date/timePositionNaut miles runAvg speedWind from/ knotsBaromVisibWave heightAir tempDewpointWater temp
2018-Jan-21 09:45N 45°39' W 122°45'1 2.2
2018-Jan-21 09:18N 45°40' W 122°46'0 0.2
2018-Jan-21 09:00N 45°40' W 122°46'3 2.8
2018-Jan-21 07:58N 45°38' W 122°43'0 0.4
2018-Jan-21 07:30N 45°38' W 122°42'2 1.4
2018-Jan-21 05:50N 45°39' W 122°45'9 1.4
2018-Jan-20 23:38N 45°48' W 122°47'110.1
2018-Jan-20 23:30N 45°47' W 122°46'510.2
2018-Jan-20 23:00N 45°42' W 122°46'3 5.5
2018-Jan-20 22:27N 45°39' W 122°45'0 0.0
2018-Jan-20 21:57N 45°39' W 122°45'0 0.0
2018-Jan-20 21:30N 45°39' W 122°45'0 0.0
2018-Jan-20 20:39N 45°39' W 122°45'0 0.0
2018-Jan-20 20:30N 45°39' W 122°45'0 0.0
2018-Jan-20 20:00N 45°39' W 122°45'0 0.0
2018-Jan-20 18:39N 45°39' W 122°45'0 0.0
2018-Jan-20 18:30N 45°39' W 122°45'0 0.0
2018-Jan-20 17:54N 45°39' W 122°45'0 0.0
2018-Jan-20 17:24N 45°39' W 122°45'2 5.7
2018-Jan-20 16:58N 45°38' W 122°42'0 0.3
2018-Jan-20 16:30N 45°38' W 122°42'1 1.4
2018-Jan-20 15:40N 45°38' W 122°44'1 4.0
2018-Jan-20 15:30N 45°39' W 122°44'0 0.3
2018-Jan-20 14:57N 45°39' W 122°44'0 0.1
2018-Jan-20 14:31N 45°39' W 122°44'1 0.9
2018-Jan-20 13:58N 45°39' W 122°45'0 0.0
2018-Jan-20 12:55N 45°39' W 122°45'0 0.0
2018-Jan-20 12:25N 45°39' W 122°45'0 0.0
2018-Jan-20 11:58N 45°39' W 122°45'0 0.5
2018-Jan-20 11:27N 45°39' W 122°45'1 2.6
2018-Jan-20 11:00N 45°40' W 122°46'1 1.5
2018-Jan-20 10:31N 45°39' W 122°46'1 1.0
2018-Jan-20 09:53N 45°39' W 122°45'0 0.0
2018-Jan-20 09:29N 45°39' W 122°45'0 0.0
2018-Jan-20 08:56N 45°39' W 122°45'0 0.1
2018-Jan-20 08:29N 45°39' W 122°45'0 0.0
2018-Jan-20 07:37N 45°39' W 122°45'0 0.0
2018-Jan-20 07:28N 45°39' W 122°45'0 0.0
2018-Jan-20 06:50N 45°39' W 122°45'0 0.0
2018-Jan-20 06:29N 45°39' W 122°45'0 0.0
2018-Jan-20 05:59N 45°39' W 122°45'0 0.0
2018-Jan-20 05:22N 45°39' W 122°45'0 0.0
2018-Jan-20 04:58N 45°39' W 122°45'0 0.0
2018-Jan-20 04:28N 45°39' W 122°45'0 0.0
2018-Jan-20 03:58N 45°39' W 122°45'0 0.0
2018-Jan-20 03:25N 45°39' W 122°45'0 0.0
2018-Jan-20 02:55N 45°39' W 122°45'0 0.0
2018-Jan-20 02:19N 45°39' W 122°45'0 0.0
2018-Jan-20 01:55N 45°39' W 122°45'0 0.0
2018-Jan-20 01:28N 45°39' W 122°45'0 0.0
2018-Jan-20 00:55N 45°39' W 122°45'0 0.0
2018-Jan-20 00:10N 45°39' W 122°45'0 0.0
2018-Jan-19 23:40N 45°39' W 122°45'0 0.7
2018-Jan-19 23:30N 45°39' W 122°45'0 0.4
2018-Jan-19 23:00N 45°39' W 122°45'0 0.2
2018-Jan-19 21:46N 45°39' W 122°45'0 0.0
2018-Jan-19 21:19N 45°39' W 122°45'0 0.0
2018-Jan-19 20:58N 45°39' W 122°45'0 0.1
2018-Jan-19 20:30N 45°39' W 122°45'1 2.4
2018-Jan-19 20:00N 45°38' W 122°44'0 0.2
2018-Jan-19 19:30N 45°38' W 122°44'0 0.0
2018-Jan-19 19:00N 45°38' W 122°44'0 0.0
2018-Jan-19 18:30N 45°38' W 122°44'0 0.2
2018-Jan-19 18:00N 45°38' W 122°44'0 0.3
2018-Jan-19 17:30N 45°38' W 122°44'0 0.2
2018-Jan-19 17:00N 45°38' W 122°44'1 1.8
2018-Jan-19 16:23N 45°39' W 122°45'0 0.0
2018-Jan-19 15:59N 45°39' W 122°45'0 0.0
2018-Jan-19 15:05N 45°39' W 122°45'0 0.0
2018-Jan-19 14:53N 45°39' W 122°45'0 0.0
2018-Jan-19 14:29N 45°39' W 122°45'0 0.0
2018-Jan-19 13:53N 45°39' W 122°45'0 0.0
2018-Jan-19 13:29N 45°39' W 122°45'0 0.0
2018-Jan-19 12:50N 45°39' W 122°45'0 0.0
2018-Jan-19 12:29N 45°39' W 122°45'0 0.0
2018-Jan-19 11:56N 45°39' W 122°45'0 0.0
2018-Jan-19 11:29N 45°39' W 122°45'0 0.0
2018-Jan-19 10:59N 45°39' W 122°45'0 0.0
2018-Jan-19 10:29N 45°39' W 122°45'0 0.0
2018-Jan-19 09:59N 45°39' W 122°45'0 0.0
2018-Jan-19 09:29N 45°39' W 122°45'0 0.0
2018-Jan-19 08:59N 45°39' W 122°45'0 0.0
2018-Jan-19 08:26N 45°39' W 122°45'0 0.0
2018-Jan-19 07:50N 45°39' W 122°45'0 0.0
2018-Jan-19 07:29N 45°39' W 122°45'0 0.0
2018-Jan-19 06:59N 45°39' W 122°45'0 0.0
2018-Jan-19 06:29N 45°39' W 122°45'0 0.0
2018-Jan-19 05:56N 45°39' W 122°45'0 0.0
2018-Jan-19 05:29N 45°39' W 122°45'0 0.0
2018-Jan-19 04:59N 45°39' W 122°45'0 0.0
2018-Jan-19 04:29N 45°39' W 122°45'0 0.0
2018-Jan-19 03:50N 45°39' W 122°45'0 0.0
2018-Jan-19 03:29N 45°39' W 122°45'0 0.0
2018-Jan-19 02:56N 45°39' W 122°45'0 0.0
2018-Jan-19 02:29N 45°39' W 122°45'0 0.0
2018-Jan-19 01:59N 45°39' W 122°45'0 0.0
2018-Jan-19 01:26N 45°39' W 122°45'0 0.0
2018-Jan-19 00:44N 45°39' W 122°45'0 0.0
2018-Jan-19 00:29N 45°39' W 122°45'0 0.0
2018-Jan-18 23:59N 45°39' W 122°45'0 0.0
2018-Jan-18 23:26N 45°39' W 122°45'0 0.0
2018-Jan-18 22:56N 45°39' W 122°45'0 0.0
2018-Jan-18 22:26N 45°39' W 122°45'0 0.0
2018-Jan-18 21:59N 45°39' W 122°45'0 0.0
2018-Jan-18 21:29N 45°39' W 122°45'0 0.0
2018-Jan-18 20:44N 45°39' W 122°45'0 0.0
2018-Jan-18 20:29N 45°39' W 122°45'0 0.0
2018-Jan-18 19:59N 45°39' W 122°45'0 0.0
2018-Jan-18 19:17N 45°39' W 122°45'0 0.0
2018-Jan-18 18:59N 45°39' W 122°45'0 0.0
2018-Jan-18 18:23N 45°39' W 122°45'0 0.0
2018-Jan-18 17:59N 45°39' W 122°45'0 0.0
2018-Jan-18 17:28N 45°39' W 122°45'0 0.0
2018-Jan-18 16:59N 45°39' W 122°45'0 0.0
2018-Jan-18 16:29N 45°39' W 122°45'0 0.0
2018-Jan-18 15:58N 45°39' W 122°45'0 0.0
2018-Jan-18 15:29N 45°39' W 122°45'0 0.0
2018-Jan-18 14:58N 45°39' W 122°45'0 0.0
2018-Jan-18 14:28N 45°39' W 122°45'0 0.0
2018-Jan-18 13:56N 45°39' W 122°45'0 0.0
2018-Jan-18 13:29N 45°39' W 122°45'0 0.0
2018-Jan-18 12:59N 45°39' W 122°45'0 0.0
2018-Jan-18 12:28N 45°39' W 122°45'0 0.0
2018-Jan-18 11:53N 45°39' W 122°45'0 0.0
2018-Jan-18 11:28N 45°39' W 122°45'0 0.0
2018-Jan-18 10:56N 45°39' W 122°45'0 0.0
2018-Jan-18 10:16N 45°39' W 122°45'0 0.0
2018-Jan-18 09:58N 45°39' W 122°45'0 0.0
2018-Jan-18 09:25N 45°39' W 122°45'0 0.0
2018-Jan-18 08:58N 45°39' W 122°45'0 0.0
2018-Jan-18 08:28N 45°39' W 122°45'0 0.0
2018-Jan-18 07:58N 45°39' W 122°45'0 0.0
2018-Jan-18 07:22N 45°39' W 122°45'0 0.0
2018-Jan-18 06:59N 45°39' W 122°45'0 0.0
2018-Jan-18 06:29N 45°39' W 122°45'0 0.0
2018-Jan-18 05:55N 45°39' W 122°45'0 0.0
2018-Jan-18 05:28N 45°39' W 122°45'0 0.0
2018-Jan-18 04:58N 45°39' W 122°45'0 0.0
2018-Jan-18 04:25N 45°39' W 122°45'0 0.0
2018-Jan-18 03:55N 45°39' W 122°45'0 0.0
2018-Jan-18 03:28N 45°39' W 122°45'0 0.0
2018-Jan-18 02:58N 45°39' W 122°45'0 0.0
2018-Jan-18 02:28N 45°39' W 122°45'0 0.0
2018-Jan-18 01:49N 45°39' W 122°45'2 5.8
2018-Jan-18 01:30N 45°38' W 122°43'3 6.0
2018-Jan-18 01:00N 45°40' W 122°46'2 1.5
2018-Jan-18 00:01N 45°39' W 122°45'0 4.4
2018-Jan-17 23:57N 45°39' W 122°44'  
2018-Jan-12 15:00N 45°34' W 122°44'0 0.0
2018-Jan-12 14:30N 45°34' W 122°44'2 3.7
2018-Jan-12 14:01N 45°35' W 122°46'3 6.8
2018-Jan-12 13:30N 45°38' W 122°47'1 2.8
2018-Jan-12 13:00N 45°39' W 122°45'0 0.0
2018-Jan-12 12:31N 45°39' W 122°45'0 0.0
2018-Jan-12 12:00N 45°39' W 122°45'0 0.0
2018-Jan-12 11:30N 45°39' W 122°45'0 0.0
2018-Jan-12 11:01N 45°39' W 122°45'0 0.0
2018-Jan-12 10:30N 45°39' W 122°45'1 1.3
2018-Jan-12 10:01N 45°39' W 122°44'0 0.3
2018-Jan-12 09:31N 45°39' W 122°44'1 1.0
2018-Jan-12 09:01N 45°39' W 122°45'0 0.0
2018-Jan-12 08:30N 45°39' W 122°45'0 0.0
2018-Jan-12 08:01N 45°39' W 122°45'0 0.0
2018-Jan-12 07:31N 45°39' W 122°45'0 0.0
2018-Jan-12 07:01N 45°39' W 122°45'3 5.2
2018-Jan-12 06:31N 45°36' W 122°47'0 0.2
2018-Jan-12 06:00N 45°36' W 122°47'0 0.3
2018-Jan-12 04:58N 45°36' W 122°47'1 2.9
2018-Jan-12 04:30N 45°37' W 122°47'2 4.2
2018-Jan-12 04:00N 45°39' W 122°45'0 0.1
2018-Jan-12 03:30N 45°39' W 122°45'0 0.0
2018-Jan-12 03:00N 45°39' W 122°45'0 0.0
2018-Jan-12 02:31N 45°39' W 122°45'0 0.0
2018-Jan-12 02:00N 45°39' W 122°45'0 0.0
2018-Jan-12 01:31N 45°39' W 122°45'0 0.0
2018-Jan-12 01:00N 45°39' W 122°45'0 0.0
2018-Jan-12 00:30N 45°39' W 122°45'0 0.0
2018-Jan-12 00:01N 45°39' W 122°45'0 0.0
2018-Jan-11 23:31N 45°39' W 122°45'0 0.0
2018-Jan-11 23:01N 45°39' W 122°45'0 0.0
2018-Jan-11 22:22N 45°39' W 122°45'0 0.0
2018-Jan-11 22:00N 45°39' W 122°45'0 0.0
2018-Jan-11 21:31N 45°39' W 122°45'0 0.0
2018-Jan-11 21:01N 45°39' W 122°45'0 0.0
2018-Jan-11 20:30N 45°39' W 122°45'0 0.0
2018-Jan-11 20:01N 45°39' W 122°45'0 0.0
2018-Jan-11 19:31N 45°39' W 122°45'0 0.0
2018-Jan-11 19:00N 45°39' W 122°45'0 0.0
2018-Jan-11 18:31N 45°39' W 122°45'0 0.0
2018-Jan-11 18:00N 45°39' W 122°45'0 0.0
2018-Jan-11 17:26N 45°39' W 122°45'0 0.0
2018-Jan-11 16:58N 45°39' W 122°45'0 0.0
2018-Jan-11 16:31N 45°39' W 122°45'0 0.0
2018-Jan-11 16:01N 45°39' W 122°45'0 0.0
2018-Jan-11 15:30N 45°39' W 122°45'0 0.0
2018-Jan-11 15:01N 45°39' W 122°45'0 0.0
2018-Jan-11 14:31N 45°39' W 122°45'0 0.0
2018-Jan-11 14:00N 45°39' W 122°45'0 0.0
2018-Jan-11 13:31N 45°39' W 122°45'0 0.0
2018-Jan-11 13:01N 45°39' W 122°45'0 0.0
2018-Jan-11 12:30N 45°39' W 122°45'0 0.0
2018-Jan-11 12:01N 45°39' W 122°45'0 0.0
2018-Jan-11 11:31N 45°39' W 122°45'0 0.6
2018-Jan-11 11:01N 45°39' W 122°45'1 2.6
2018-Jan-11 10:30N 45°38' W 122°43'0 0.3
2018-Jan-11 10:01N 45°38' W 122°43'  
Track history (hours):
 
Tides and Currents Weather Stations Pressure Air Temp Water Temp Dewpoint Dewpoint Depression Visibility Wind Speed Wind Dir Waves Ship Positions

Portland

Owner: Shaver Transportation Company, Portland, OR. More information available from US FCC via Universal Licensing System and Coast Guard Vessel Documentation Center.

Last reported at 2018-Jan-21 09:45 UTC. Time now 2018-Jan-21 22:33 UTC.
Position N 45°39' W 122°45'.

Length 27 m; draft 4 m.

Type: Towing. MMSI: 367315814.

Date/timePositionNaut miles runAvg speedWind from/ knotsBaromVisibWave heightAir tempDewpointWater temp
2018-Jan-21 09:45N 45°39' W 122°45'1 2.2
2018-Jan-21 09:18N 45°40' W 122°46'0 0.2
2018-Jan-21 09:00N 45°40' W 122°46'3 2.8
2018-Jan-21 07:58N 45°38' W 122°43'0 0.4
2018-Jan-21 07:30N 45°38' W 122°42'2 1.4
2018-Jan-21 05:50N 45°39' W 122°45'9 1.4
2018-Jan-20 23:38N 45°48' W 122°47'110.1
2018-Jan-20 23:30N 45°47' W 122°46'510.2
2018-Jan-20 23:00N 45°42' W 122°46'3 5.5
2018-Jan-20 22:27N 45°39' W 122°45'0 0.0
2018-Jan-20 21:57N 45°39' W 122°45'0 0.0
2018-Jan-20 21:30N 45°39' W 122°45'0 0.0
2018-Jan-20 20:39N 45°39' W 122°45'0 0.0
2018-Jan-20 20:30N 45°39' W 122°45'0 0.0
2018-Jan-20 20:00N 45°39' W 122°45'0 0.0
2018-Jan-20 18:39N 45°39' W 122°45'0 0.0
2018-Jan-20 18:30N 45°39' W 122°45'0 0.0
2018-Jan-20 17:54N 45°39' W 122°45'0 0.0
2018-Jan-20 17:24N 45°39' W 122°45'2 5.7
2018-Jan-20 16:58N 45°38' W 122°42'0 0.3
2018-Jan-20 16:30N 45°38' W 122°42'1 1.4
2018-Jan-20 15:40N 45°38' W 122°44'1 4.0
2018-Jan-20 15:30N 45°39' W 122°44'0 0.3
2018-Jan-20 14:57N 45°39' W 122°44'0 0.1
2018-Jan-20 14:31N 45°39' W 122°44'1 0.9
2018-Jan-20 13:58N 45°39' W 122°45'0 0.0
2018-Jan-20 12:55N 45°39' W 122°45'0 0.0
2018-Jan-20 12:25N 45°39' W 122°45'0 0.0
2018-Jan-20 11:58N 45°39' W 122°45'0 0.5
2018-Jan-20 11:27N 45°39' W 122°45'1 2.6
2018-Jan-20 11:00N 45°40' W 122°46'1 1.5
2018-Jan-20 10:31N 45°39' W 122°46'1 1.0
2018-Jan-20 09:53N 45°39' W 122°45'0 0.0
2018-Jan-20 09:29N 45°39' W 122°45'0 0.0
2018-Jan-20 08:56N 45°39' W 122°45'0 0.1
2018-Jan-20 08:29N 45°39' W 122°45'0 0.0
2018-Jan-20 07:37N 45°39' W 122°45'0 0.0
2018-Jan-20 07:28N 45°39' W 122°45'0 0.0
2018-Jan-20 06:50N 45°39' W 122°45'0 0.0
2018-Jan-20 06:29N 45°39' W 122°45'0 0.0
2018-Jan-20 05:59N 45°39' W 122°45'0 0.0
2018-Jan-20 05:22N 45°39' W 122°45'0 0.0
2018-Jan-20 04:58N 45°39' W 122°45'0 0.0
2018-Jan-20 04:28N 45°39' W 122°45'0 0.0
2018-Jan-20 03:58N 45°39' W 122°45'0 0.0
2018-Jan-20 03:25N 45°39' W 122°45'0 0.0
2018-Jan-20 02:55N 45°39' W 122°45'0 0.0
2018-Jan-20 02:19N 45°39' W 122°45'0 0.0
2018-Jan-20 01:55N 45°39' W 122°45'0 0.0
2018-Jan-20 01:28N 45°39' W 122°45'0 0.0
2018-Jan-20 00:55N 45°39' W 122°45'0 0.0
2018-Jan-20 00:10N 45°39' W 122°45'0 0.0
2018-Jan-19 23:40N 45°39' W 122°45'0 0.7
2018-Jan-19 23:30N 45°39' W 122°45'0 0.4
2018-Jan-19 23:00N 45°39' W 122°45'0 0.2
2018-Jan-19 21:46N 45°39' W 122°45'0 0.0
2018-Jan-19 21:19N 45°39' W 122°45'0 0.0
2018-Jan-19 20:58N 45°39' W 122°45'0 0.1
2018-Jan-19 20:30N 45°39' W 122°45'1 2.4
2018-Jan-19 20:00N 45°38' W 122°44'0 0.2
2018-Jan-19 19:30N 45°38' W 122°44'0 0.0
2018-Jan-19 19:00N 45°38' W 122°44'0 0.0
2018-Jan-19 18:30N 45°38' W 122°44'0 0.2
2018-Jan-19 18:00N 45°38' W 122°44'0 0.3
2018-Jan-19 17:30N 45°38' W 122°44'0 0.2
2018-Jan-19 17:00N 45°38' W 122°44'1 1.8
2018-Jan-19 16:23N 45°39' W 122°45'0 0.0
2018-Jan-19 15:59N 45°39' W 122°45'0 0.0
2018-Jan-19 15:05N 45°39' W 122°45'0 0.0
2018-Jan-19 14:53N 45°39' W 122°45'0 0.0
2018-Jan-19 14:29N 45°39' W 122°45'0 0.0
2018-Jan-19 13:53N 45°39' W 122°45'0 0.0
2018-Jan-19 13:29N 45°39' W 122°45'0 0.0
2018-Jan-19 12:50N 45°39' W 122°45'0 0.0
2018-Jan-19 12:29N 45°39' W 122°45'0 0.0
2018-Jan-19 11:56N 45°39' W 122°45'0 0.0
2018-Jan-19 11:29N 45°39' W 122°45'0 0.0
2018-Jan-19 10:59N 45°39' W 122°45'0 0.0
2018-Jan-19 10:29N 45°39' W 122°45'0 0.0
2018-Jan-19 09:59N 45°39' W 122°45'0 0.0
2018-Jan-19 09:29N 45°39' W 122°45'0 0.0
2018-Jan-19 08:59N 45°39' W 122°45'0 0.0
2018-Jan-19 08:26N 45°39' W 122°45'0 0.0
2018-Jan-19 07:50N 45°39' W 122°45'0 0.0
2018-Jan-19 07:29N 45°39' W 122°45'0 0.0
2018-Jan-19 06:59N 45°39' W 122°45'0 0.0
2018-Jan-19 06:29N 45°39' W 122°45'0 0.0
2018-Jan-19 05:56N 45°39' W 122°45'0 0.0
2018-Jan-19 05:29N 45°39' W 122°45'0 0.0
2018-Jan-19 04:59N 45°39' W 122°45'0 0.0
2018-Jan-19 04:29N 45°39' W 122°45'0 0.0
2018-Jan-19 03:50N 45°39' W 122°45'0 0.0
2018-Jan-19 03:29N 45°39' W 122°45'0 0.0
2018-Jan-19 02:56N 45°39' W 122°45'0 0.0
2018-Jan-19 02:29N 45°39' W 122°45'0 0.0
2018-Jan-19 01:59N 45°39' W 122°45'0 0.0
2018-Jan-19 01:26N 45°39' W 122°45'0 0.0
2018-Jan-19 00:44N 45°39' W 122°45'0 0.0
2018-Jan-19 00:29N 45°39' W 122°45'0 0.0
2018-Jan-18 23:59N 45°39' W 122°45'0 0.0
2018-Jan-18 23:26N 45°39' W 122°45'0 0.0
2018-Jan-18 22:56N 45°39' W 122°45'0 0.0
2018-Jan-18 22:26N 45°39' W 122°45'0 0.0
2018-Jan-18 21:59N 45°39' W 122°45'0 0.0
2018-Jan-18 21:29N 45°39' W 122°45'0 0.0
2018-Jan-18 20:44N 45°39' W 122°45'0 0.0
2018-Jan-18 20:29N 45°39' W 122°45'0 0.0
2018-Jan-18 19:59N 45°39' W 122°45'0 0.0
2018-Jan-18 19:17N 45°39' W 122°45'0 0.0
2018-Jan-18 18:59N 45°39' W 122°45'0 0.0
2018-Jan-18 18:23N 45°39' W 122°45'0 0.0
2018-Jan-18 17:59N 45°39' W 122°45'0 0.0
2018-Jan-18 17:28N 45°39' W 122°45'0 0.0
2018-Jan-18 16:59N 45°39' W 122°45'0 0.0
2018-Jan-18 16:29N 45°39' W 122°45'0 0.0
2018-Jan-18 15:58N 45°39' W 122°45'0 0.0
2018-Jan-18 15:29N 45°39' W 122°45'0 0.0
2018-Jan-18 14:58N 45°39' W 122°45'0 0.0
2018-Jan-18 14:28N 45°39' W 122°45'0 0.0
2018-Jan-18 13:56N 45°39' W 122°45'0 0.0
2018-Jan-18 13:29N 45°39' W 122°45'0 0.0
2018-Jan-18 12:59N 45°39' W 122°45'0 0.0
2018-Jan-18 12:28N 45°39' W 122°45'0 0.0
2018-Jan-18 11:53N 45°39' W 122°45'0 0.0
2018-Jan-18 11:28N 45°39' W 122°45'0 0.0
2018-Jan-18 10:56N 45°39' W 122°45'0 0.0
2018-Jan-18 10:16N 45°39' W 122°45'0 0.0
2018-Jan-18 09:58N 45°39' W 122°45'0 0.0
2018-Jan-18 09:25N 45°39' W 122°45'0 0.0
2018-Jan-18 08:58N 45°39' W 122°45'0 0.0
2018-Jan-18 08:28N 45°39' W 122°45'0 0.0
2018-Jan-18 07:58N 45°39' W 122°45'0 0.0
2018-Jan-18 07:22N 45°39' W 122°45'0 0.0
2018-Jan-18 06:59N 45°39' W 122°45'0 0.0
2018-Jan-18 06:29N 45°39' W 122°45'0 0.0
2018-Jan-18 05:55N 45°39' W 122°45'0 0.0
2018-Jan-18 05:28N 45°39' W 122°45'0 0.0
2018-Jan-18 04:58N 45°39' W 122°45'0 0.0
2018-Jan-18 04:25N 45°39' W 122°45'0 0.0
2018-Jan-18 03:55N 45°39' W 122°45'0 0.0
2018-Jan-18 03:28N 45°39' W 122°45'0 0.0
2018-Jan-18 02:58N 45°39' W 122°45'0 0.0
2018-Jan-18 02:28N 45°39' W 122°45'0 0.0
2018-Jan-18 01:49N 45°39' W 122°45'2 5.8
2018-Jan-18 01:30N 45°38' W 122°43'3 6.0
2018-Jan-18 01:00N 45°40' W 122°46'2 1.5
2018-Jan-18 00:01N 45°39' W 122°45'0 4.4
2018-Jan-17 23:57N 45°39' W 122°44'  
2018-Jan-12 15:00N 45°34' W 122°44'0 0.0
2018-Jan-12 14:30N 45°34' W 122°44'2 3.7
2018-Jan-12 14:01N 45°35' W 122°46'3 6.8
2018-Jan-12 13:30N 45°38' W 122°47'1 2.8
2018-Jan-12 13:00N 45°39' W 122°45'0 0.0
2018-Jan-12 12:31N 45°39' W 122°45'0 0.0
2018-Jan-12 12:00N 45°39' W 122°45'0 0.0
2018-Jan-12 11:30N 45°39' W 122°45'0 0.0
2018-Jan-12 11:01N 45°39' W 122°45'0 0.0
2018-Jan-12 10:30N 45°39' W 122°45'1 1.3
2018-Jan-12 10:01N 45°39' W 122°44'0 0.3
2018-Jan-12 09:31N 45°39' W 122°44'1 1.0
2018-Jan-12 09:01N 45°39' W 122°45'0 0.0
2018-Jan-12 08:30N 45°39' W 122°45'0 0.0
2018-Jan-12 08:01N 45°39' W 122°45'0 0.0
2018-Jan-12 07:31N 45°39' W 122°45'0 0.0
2018-Jan-12 07:01N 45°39' W 122°45'3 5.2
2018-Jan-12 06:31N 45°36' W 122°47'0 0.2
2018-Jan-12 06:00N 45°36' W 122°47'0 0.3
2018-Jan-12 04:58N 45°36' W 122°47'1 2.9
2018-Jan-12 04:30N 45°37' W 122°47'2 4.2
2018-Jan-12 04:00N 45°39' W 122°45'0 0.1
2018-Jan-12 03:30N 45°39' W 122°45'0 0.0
2018-Jan-12 03:00N 45°39' W 122°45'0 0.0
2018-Jan-12 02:31N 45°39' W 122°45'0 0.0
2018-Jan-12 02:00N 45°39' W 122°45'0 0.0
2018-Jan-12 01:31N 45°39' W 122°45'0 0.0
2018-Jan-12 01:00N 45°39' W 122°45'0 0.0
2018-Jan-12 00:30N 45°39' W 122°45'0 0.0
2018-Jan-12 00:01N 45°39' W 122°45'0 0.0
2018-Jan-11 23:31N 45°39' W 122°45'0 0.0
2018-Jan-11 23:01N 45°39' W 122°45'0 0.0
2018-Jan-11 22:22N 45°39' W 122°45'0 0.0
2018-Jan-11 22:00N 45°39' W 122°45'0 0.0
2018-Jan-11 21:31N 45°39' W 122°45'0 0.0
2018-Jan-11 21:01N 45°39' W 122°45'0 0.0
2018-Jan-11 20:30N 45°39' W 122°45'0 0.0
2018-Jan-11 20:01N 45°39' W 122°45'0 0.0
2018-Jan-11 19:31N 45°39' W 122°45'0 0.0
2018-Jan-11 19:00N 45°39' W 122°45'0 0.0
2018-Jan-11 18:31N 45°39' W 122°45'0 0.0
2018-Jan-11 18:00N 45°39' W 122°45'0 0.0
2018-Jan-11 17:26N 45°39' W 122°45'0 0.0
2018-Jan-11 16:58N 45°39' W 122°45'0 0.0
2018-Jan-11 16:31N 45°39' W 122°45'0 0.0
2018-Jan-11 16:01N 45°39' W 122°45'0 0.0
2018-Jan-11 15:30N 45°39' W 122°45'0 0.0
2018-Jan-11 15:01N 45°39' W 122°45'0 0.0
2018-Jan-11 14:31N 45°39' W 122°45'0 0.0
2018-Jan-11 14:00N 45°39' W 122°45'0 0.0
2018-Jan-11 13:31N 45°39' W 122°45'0 0.0
2018-Jan-11 13:01N 45°39' W 122°45'0 0.0
2018-Jan-11 12:30N 45°39' W 122°45'0 0.0
2018-Jan-11 12:01N 45°39' W 122°45'0 0.0
2018-Jan-11 11:31N 45°39' W 122°45'0 0.6
2018-Jan-11 11:01N 45°39' W 122°45'1 2.6
2018-Jan-11 10:30N 45°38' W 122°43'0 0.3
2018-Jan-11 10:01N 45°38' W 122°43'  

Dump ship's entire track history